»·PEaware :: N9144T KOXR-KRNM

N9144T :: KOXR-KRNM

FLIGHT INFORMATION

Flight Status: Arrived
Operator: Privately registered:
United States
More flights under this callsign
Pilot: Corey M. (20089)
Aircraft: PIPER PA-31/31P NAVAJO CHIEFTAIN
(PA31)
More flights by this aircraft type
Origin: KOXR Oxnard
United States
Destination: KRNM Ramona
United States
More flights between these airports :: More routes between these airports
Route: VTU044 GINNA V326 VNY V186 ROBNN V208 JLI
File this flight plan on PilotEdge
Remarks:
Altitude:
(Current/Filed)
7,000ft
Speed:
(Current/Filed)
200kts
Departed: 31-Jan-21 01:36 PM
Arrived: 31-Jan-21 02:22 PM
Distance/Time
Traveled:
134nm/0:46
Distance/Time
To Go:
Arrived

Flight Plot

Page will automatically refresh every two minutes.


Map Options




Map Legend


Flown Route
Filed Route
Departure Airport
Arrival Airport
Navaid (VOR, NDB)
Fix

Horizontal Profiles

Position Reports

Time Latitude Longitude Heading Altitude Ground
Speed
31-Jan-21 13:10 34.198723 -119.202074 359 40ft 0kts
31-Jan-21 13:11 34.198723 -119.202074 359 40ft 0kts
31-Jan-21 13:14 34.198723 -119.202074 360 40ft 0kts
31-Jan-21 13:15 34.198723 -119.202074 360 40ft 0kts
31-Jan-21 13:16 34.198723 -119.202074 360 40ft 0kts
31-Jan-21 13:17 34.198723 -119.202074 360 40ft 0kts
31-Jan-21 13:18 34.198723 -119.202074 360 40ft 0kts
31-Jan-21 13:19 34.198723 -119.202074 360 40ft 0kts
31-Jan-21 13:20 34.198723 -119.202074 359 40ft 0kts
31-Jan-21 13:21 34.198723 -119.202074 360 40ft 0kts
31-Jan-21 13:22 34.198723 -119.202074 360 40ft 0kts
31-Jan-21 13:23 34.198723 -119.202074 360 40ft 0kts
31-Jan-21 13:24 34.198723 -119.202074 360 40ft 0kts
31-Jan-21 13:25 34.198723 -119.202074 360 40ft 0kts
31-Jan-21 13:26 34.198723 -119.202074 360 40ft 0kts
31-Jan-21 13:27 34.198723 -119.202074 360 40ft 0kts
31-Jan-21 13:28 34.198723 -119.202074 360 40ft 0kts
31-Jan-21 13:29 34.198723 -119.202074 360 40ft 0kts
31-Jan-21 13:30 34.198723 -119.202074 360 40ft 0kts
31-Jan-21 13:31 34.198726 -119.202074 359 40ft 0kts
31-Jan-21 13:32 34.199765 -119.201303 94 41ft 12kts
31-Jan-21 13:33 34.199901 -119.197561 10 43ft 0kts
31-Jan-21 13:34 34.199901 -119.197561 10 43ft 0kts
31-Jan-21 13:35 34.200790 -119.204620 273 64ft 109kts
31-Jan-21 13:36 34.197716 -119.258022 268 1316ft 186kts
31-Jan-21 13:37 34.195723 -119.322170 269 3333ft 195kts
31-Jan-21 13:38 34.203871 -119.384664 329 5332ft 203kts
31-Jan-21 13:39 34.232387 -119.339289 106 7020ft 233kts
31-Jan-21 13:40 34.233155 -119.258053 91 7017ft 242kts
31-Jan-21 13:41 34.232275 -119.176149 90 7018ft 243kts
31-Jan-21 13:42 34.231578 -119.095259 93 7015ft 232kts
31-Jan-21 13:43 34.230626 -119.017889 94 7017ft 228kts
31-Jan-21 13:44 34.229681 -118.940070 93 7019ft 236kts
31-Jan-21 13:45 34.228677 -118.859373 93 7018ft 240kts
31-Jan-21 13:46 34.227608 -118.777329 93 7020ft 248kts
31-Jan-21 13:47 34.226118 -118.692656 90 7022ft 254kts
31-Jan-21 13:48 34.225212 -118.605645 89 6995ft 263kts
31-Jan-21 13:49 34.223865 -118.516270 89 6928ft 264kts
31-Jan-21 13:50 34.204920 -118.430404 109 6927ft 263kts
31-Jan-21 13:51 34.179576 -118.346862 110 6927ft 261kts
31-Jan-21 13:52 34.154411 -118.264189 110 6930ft 260kts
31-Jan-21 13:53 34.129672 -118.183115 110 7028ft 258kts
31-Jan-21 13:54 34.104695 -118.101494 110 7034ft 259kts
31-Jan-21 13:55 34.079519 -118.019455 110 7036ft 260kts
31-Jan-21 13:56 34.054335 -117.937610 110 7031ft 260kts
31-Jan-21 13:57 34.029103 -117.855833 110 7026ft 260kts
31-Jan-21 13:58 34.003682 -117.773671 110 7001ft 260kts
31-Jan-21 13:59 33.975651 -117.692406 112 6950ft 261kts
31-Jan-21 14:00 33.947155 -117.611570 112 6879ft 261kts
31-Jan-21 14:01 33.916018 -117.532631 136 6872ft 259kts
31-Jan-21 14:02 33.858562 -117.479926 144 6918ft 260kts
31-Jan-21 14:03 33.799628 -117.430421 145 6959ft 252kts
31-Jan-21 14:04 33.742126 -117.382309 146 7004ft 249kts
31-Jan-21 14:05 33.685074 -117.334720 146 7026ft 249kts
31-Jan-21 14:06 33.627574 -117.286808 146 7024ft 251kts
31-Jan-21 14:07 33.569711 -117.238661 146 7020ft 253kts
31-Jan-21 14:08 33.511225 -117.190092 146 7015ft 255kts
31-Jan-21 14:09 33.447817 -117.155214 170 7014ft 254kts
31-Jan-21 14:10 33.377906 -117.140404 171 7007ft 254kts
31-Jan-21 14:12 33.307764 -117.129674 192 6982ft 251kts
31-Jan-21 14:13 33.242580 -117.144581 192 6272ft 233kts
31-Jan-21 14:14 33.178660 -117.159363 192 5267ft 234kts
31-Jan-21 14:15 33.122382 -117.172737 192 4102ft 178kts
31-Jan-21 14:16 33.099722 -117.136727 102 3967ft 136kts
31-Jan-21 14:17 33.092404 -117.086988 102 3986ft 167kts
31-Jan-21 14:18 33.084455 -117.033197 108 3975ft 156kts
31-Jan-21 14:19 33.063573 -116.994903 124 2919ft 129kts
31-Jan-21 14:20 33.049409 -116.965795 112 2157ft 89kts
31-Jan-21 14:21 33.042877 -116.938283 98 1760ft 86kts
31-Jan-21 14:22 33.039357 -116.915286 65 1391ft 18kts
31-Jan-21 14:23 33.039572 -116.915018 9 1391ft 0kts
31-Jan-21 14:24 33.040186 -116.913852 82 1392ft 4kts
31-Jan-21 14:24 33.040611 -116.912799 103 1394ft 8kts

Navigation Log

Ident Type
Flight plan parsing failed, navigation log unavailable